Terminal Aerodrome Forecast
Issued by NWS

Home | Current Version | Previous Version | Graphics & Text | Print | Product List | Glossary Off
Versions: 1 2 3 4 5 6 7 8 9 10 11 12 13

000
FTUS43 KDDC 202335
TAFHYS
TAF
KHYS 202335Z 2100/2124 27006KT P6SM OVC025
     FM210300 27006KT P6SM SCT040
     FM211600 VRB03KT P6SM FEW200=

USA.gov is the U.S. government's official web portal to all federal, state and local government web resources and services.